createdAt,value
2018-09-30T00:00:17.296Z,102087.00
2018-09-30T00:02:20.344Z,102081.00
2018-09-30T00:04:23.352Z,102072.00
2018-09-30T00:06:26.445Z,102068.00
2018-09-30T00:08:29.476Z,102065.00
2018-09-30T00:10:32.508Z,102067.00
2018-09-30T00:12:35.529Z,102066.00
2018-09-30T00:14:38.576Z,102066.00
2018-09-30T00:16:41.606Z,102062.00
2018-09-30T00:18:44.649Z,102066.00
2018-09-30T00:20:47.677Z,102070.00
2018-09-30T00:22:52.524Z,102066.00
2018-09-30T00:25:01.197Z,102062.00
2018-09-30T00:27:24.356Z,102059.00
2018-09-30T00:29:28.692Z,102055.00
2018-09-30T00:31:31.786Z,102053.00
2018-09-30T00:33:39.404Z,102052.00
2018-09-30T00:35:42.506Z,102048.00
2018-09-30T00:37:45.567Z,102044.00
2018-09-30T00:39:48.621Z,102040.00
2018-09-30T00:41:53.886Z,102037.00
2018-09-30T00:43:57.001Z,102031.00
2018-09-30T00:46:00.125Z,102034.00
2018-09-30T00:48:03.204Z,102033.00
2018-09-30T00:50:06.369Z,102032.00
2018-09-30T00:52:09.420Z,102030.00
2018-09-30T00:54:13.292Z,102028.00
2018-09-30T00:56:16.580Z,102026.00
2018-09-30T00:58:19.615Z,102023.00
2018-09-30T01:00:24.397Z,102020.00
2018-09-30T01:02:27.477Z,102013.00
2018-09-30T01:04:30.536Z,102015.00
2018-09-30T01:06:33.610Z,102011.00
2018-09-30T01:08:36.621Z,102004.00
2018-09-30T01:10:39.685Z,102003.00
2018-09-30T01:12:42.801Z,102005.00
2018-09-30T01:14:45.834Z,102007.00
2018-09-30T01:16:49.181Z,102008.00
2018-09-30T01:18:53.740Z,102001.00
2018-09-30T01:20:56.788Z,102001.00
2018-09-30T01:22:59.893Z,101993.00
2018-09-30T01:25:02.913Z,102002.00
2018-09-30T01:27:05.991Z,101990.00
2018-09-30T01:29:09.032Z,101992.00
2018-09-30T01:31:12.039Z,101994.00
2018-09-30T01:33:15.089Z,101995.00
2018-09-30T01:35:18.200Z,101986.00
2018-09-30T01:37:22.937Z,101988.00
2018-09-30T01:39:25.934Z,101985.00
2018-09-30T01:41:29.001Z,101986.00
2018-09-30T01:43:31.973Z,101976.00
2018-09-30T01:45:35.023Z,101980.00
2018-09-30T01:47:38.368Z,101977.00
2018-09-30T01:49:41.432Z,101976.00
2018-09-30T01:51:44.442Z,101971.00
2018-09-30T01:53:47.473Z,101972.00
2018-09-30T01:55:50.473Z,101970.00
2018-09-30T01:57:54.400Z,101971.00
2018-09-30T01:59:57.517Z,101968.00
2018-09-30T02:02:00.544Z,101976.00
2018-09-30T02:04:03.634Z,101970.00
2018-09-30T02:06:06.707Z,101971.00
2018-09-30T02:08:09.742Z,101965.00
2018-09-30T02:10:12.772Z,101968.00
2018-09-30T02:12:15.783Z,101963.00
2018-09-30T02:14:18.853Z,101954.00
2018-09-30T02:16:23.868Z,101951.00
2018-09-30T02:18:26.900Z,101946.00
2018-09-30T02:20:29.945Z,101933.00
2018-09-30T02:22:33.032Z,101930.00
2018-09-30T02:24:36.076Z,101927.00
2018-09-30T02:26:39.132Z,101922.00
2018-09-30T02:28:42.458Z,101921.00
2018-09-30T02:30:45.521Z,101919.00
2018-09-30T02:32:48.525Z,101920.00
2018-09-30T02:34:53.032Z,101917.00
2018-09-30T02:36:56.156Z,101916.00
2018-09-30T02:38:59.352Z,101913.00
2018-09-30T02:41:02.378Z,101912.00
2018-09-30T02:43:05.441Z,101909.00
2018-09-30T02:45:08.571Z,101905.00
2018-09-30T02:47:11.721Z,101908.00
2018-09-30T02:49:14.761Z,101899.00
2018-09-30T02:51:17.833Z,101899.00
2018-09-30T02:53:22.272Z,101897.00
2018-09-30T02:55:25.368Z,101891.00
2018-09-30T02:57:28.430Z,101896.00
2018-09-30T02:59:31.537Z,101896.00
2018-09-30T03:01:34.609Z,101893.00
2018-09-30T03:03:37.603Z,101888.00
2018-09-30T03:05:40.622Z,101891.00
2018-09-30T03:07:49.505Z,101889.00
2018-09-30T03:09:53.625Z,101884.00
2018-09-30T03:11:56.683Z,101885.00
2018-09-30T03:13:59.772Z,101882.00
2018-09-30T03:16:02.756Z,101880.00
2018-09-30T03:18:06.064Z,101873.00
2018-09-30T03:20:09.104Z,101875.00
2018-09-30T03:22:12.120Z,101876.00
2018-09-30T03:24:15.143Z,101870.00
2018-09-30T03:26:18.196Z,101876.00
2018-09-30T03:28:22.881Z,101872.00
2018-09-30T03:30:25.920Z,101875.00
2018-09-30T03:32:29.007Z,101874.00
2018-09-30T03:34:32.032Z,101867.00
2018-09-30T03:36:35.088Z,101863.00
2018-09-30T03:38:38.129Z,101864.00
2018-09-30T03:40:41.194Z,101869.00
2018-09-30T03:42:44.220Z,101865.00
2018-09-30T03:44:47.246Z,101855.00
2018-09-30T03:46:50.310Z,101845.00
2018-09-30T03:48:54.538Z,101844.00
2018-09-30T03:50:57.612Z,101842.00
2018-09-30T03:53:00.669Z,101841.00
2018-09-30T03:55:03.970Z,101834.00
2018-09-30T03:57:07.276Z,101827.00
2018-09-30T03:59:10.347Z,101824.00
2018-09-30T04:01:13.413Z,101819.00
2018-09-30T04:03:16.441Z,101822.00
2018-09-30T04:05:19.475Z,101812.00
2018-09-30T04:07:23.682Z,101814.00
2018-09-30T04:09:26.931Z,101809.00
2018-09-30T04:11:30.492Z,101813.00
2018-09-30T04:13:33.541Z,101816.00
2018-09-30T04:15:36.668Z,101809.00
2018-09-30T04:17:39.683Z,101807.00
2018-09-30T04:19:43.066Z,101800.00
2018-09-30T04:21:46.098Z,101804.00
2018-09-30T04:23:53.724Z,101802.00
2018-09-30T04:25:56.951Z,101798.00
2018-09-30T04:27:59.947Z,101787.00
2018-09-30T04:30:03.360Z,101789.00
2018-09-30T04:32:06.427Z,101789.00
2018-09-30T04:34:09.540Z,101790.00
2018-09-30T04:36:12.612Z,101786.00
2018-09-30T04:38:15.701Z,101783.00
2018-09-30T04:40:18.821Z,101790.00
2018-09-30T04:42:23.445Z,101785.00
2018-09-30T04:44:26.491Z,101781.00
2018-09-30T04:46:29.556Z,101774.00
2018-09-30T04:48:32.624Z,101773.00
2018-09-30T04:50:35.707Z,101775.00
2018-09-30T04:52:38.763Z,101775.00
2018-09-30T04:54:42.940Z,101773.00
2018-09-30T04:56:45.956Z,101778.00
2018-09-30T04:58:48.962Z,101781.00
2018-09-30T05:00:53.622Z,101777.00
2018-09-30T05:02:56.700Z,101786.00
2018-09-30T05:04:59.763Z,101786.00
2018-09-30T05:07:03.069Z,101788.00
2018-09-30T05:09:07.255Z,101792.00
2018-09-30T05:11:10.359Z,101793.00
2018-09-30T05:13:13.372Z,101797.00
2018-09-30T05:15:16.428Z,101799.00
2018-09-30T05:17:19.481Z,101798.00
2018-09-30T05:19:24.293Z,101794.00
2018-09-30T05:21:27.324Z,101798.00
2018-09-30T05:23:30.445Z,101791.00
2018-09-30T05:25:33.450Z,101787.00
2018-09-30T05:27:36.514Z,101791.00
2018-09-30T05:29:39.565Z,101788.00
2018-09-30T05:31:42.601Z,101786.00
2018-09-30T05:33:45.641Z,101794.00
2018-09-30T05:35:48.688Z,101791.00
2018-09-30T05:37:53.452Z,101789.00
2018-09-30T05:39:56.533Z,101789.00
2018-09-30T05:41:59.644Z,101788.00
2018-09-30T05:44:02.685Z,101789.00
2018-09-30T05:46:05.732Z,101790.00
2018-09-30T05:48:08.795Z,101792.00
2018-09-30T05:50:11.856Z,101787.00
2018-09-30T05:52:14.957Z,101790.00
2018-09-30T05:54:17.970Z,101787.00
2018-09-30T05:56:22.834Z,101785.00
2018-09-30T05:58:25.915Z,101785.00
2018-09-30T06:00:28.948Z,101788.00
2018-09-30T06:02:31.964Z,101791.00
2018-09-30T06:04:34.977Z,101789.00
2018-09-30T06:06:38.017Z,101789.00
2018-09-30T06:08:41.027Z,101792.00
2018-09-30T06:10:44.099Z,101787.00
2018-09-30T06:12:47.177Z,101788.00
2018-09-30T06:14:50.234Z,101787.00
2018-09-30T06:16:54.597Z,101786.00
2018-09-30T06:18:57.653Z,101789.00
2018-09-30T06:21:00.691Z,101786.00
2018-09-30T06:23:03.737Z,101787.00
2018-09-30T06:25:06.809Z,101781.00
2018-09-30T06:27:09.912Z,101783.00
2018-09-30T06:29:12.986Z,101779.00
2018-09-30T06:31:16.042Z,101778.00
2018-09-30T06:33:19.183Z,101779.00
2018-09-30T06:35:23.899Z,101783.00
2018-09-30T06:37:26.933Z,101771.00
2018-09-30T06:39:29.966Z,101766.00
2018-09-30T06:41:32.930Z,101762.00
2018-09-30T06:43:35.984Z,101761.00
2018-09-30T06:45:39.326Z,101761.00
2018-09-30T06:47:42.276Z,101757.00
2018-09-30T06:49:45.269Z,101760.00
2018-09-30T06:51:48.308Z,101765.00
2018-09-30T06:53:53.025Z,101760.00
2018-09-30T06:55:56.058Z,101757.00
2018-09-30T06:57:59.105Z,101762.00
2018-09-30T07:00:02.192Z,101763.00
2018-09-30T07:02:05.320Z,101760.00
2018-09-30T07:04:08.301Z,101754.00
2018-09-30T07:06:11.309Z,101752.00
2018-09-30T07:08:14.501Z,101748.00
2018-09-30T07:10:17.502Z,101754.00
2018-09-30T07:12:22.067Z,101747.00
2018-09-30T07:14:25.043Z,101744.00
2018-09-30T07:16:28.021Z,101742.00
2018-09-30T07:18:31.022Z,101735.00
2018-09-30T07:20:33.984Z,101742.00
2018-09-30T07:22:37.005Z,101731.00
2018-09-30T07:24:40.041Z,101729.00
2018-09-30T07:26:43.051Z,101723.00
2018-09-30T07:28:46.029Z,101729.00
2018-09-30T07:30:49.025Z,101731.00
2018-09-30T07:32:53.368Z,101731.00
2018-09-30T07:34:56.731Z,101718.00
2018-09-30T07:36:59.869Z,101716.00
2018-09-30T07:39:03.124Z,101714.00
2018-09-30T07:41:06.165Z,101708.00
2018-09-30T07:43:09.164Z,101709.00
2018-09-30T07:45:12.174Z,101712.00
2018-09-30T07:47:15.158Z,101713.00
2018-09-30T07:49:18.128Z,101710.00
2018-09-30T07:51:22.384Z,101705.00
2018-09-30T07:53:25.397Z,101710.00
2018-09-30T07:55:28.344Z,101705.00
2018-09-30T07:57:31.344Z,101708.00
2018-09-30T07:59:34.348Z,101704.00
2018-09-30T08:01:37.376Z,101701.00
2018-09-30T08:03:40.348Z,101700.00
2018-09-30T08:05:43.423Z,101694.00
2018-09-30T08:07:46.464Z,101694.00
2018-09-30T08:09:49.423Z,101689.00
2018-09-30T08:11:54.200Z,101689.00
2018-09-30T08:13:57.176Z,101693.00
2018-09-30T08:16:00.203Z,101683.00
2018-09-30T08:18:03.204Z,101684.00
2018-09-30T08:20:06.236Z,101677.00
2018-09-30T08:22:09.533Z,101682.00
2018-09-30T08:24:12.643Z,101681.00
2018-09-30T08:26:15.600Z,101674.00
2018-09-30T08:28:18.608Z,101671.00
2018-09-30T08:30:23.262Z,101670.00
2018-09-30T08:32:26.244Z,101674.00
2018-09-30T08:34:29.277Z,101669.00
2018-09-30T08:36:32.285Z,101665.00
2018-09-30T08:38:36.873Z,101667.00
2018-09-30T08:40:45.593Z,101660.00
2018-09-30T08:42:48.836Z,101663.00
2018-09-30T08:44:53.814Z,101657.00
2018-09-30T08:46:56.853Z,101661.00
2018-09-30T08:48:59.933Z,101652.00
2018-09-30T08:51:02.977Z,101640.00
2018-09-30T08:53:06.187Z,101647.00
2018-09-30T08:55:09.453Z,101641.00
2018-09-30T08:57:12.485Z,101637.00
2018-09-30T08:59:15.524Z,101642.00
2018-09-30T09:01:18.522Z,101635.00
2018-09-30T09:03:23.948Z,101638.00
2018-09-30T09:05:26.902Z,101634.00
2018-09-30T09:07:30.354Z,101630.00
2018-09-30T09:09:33.386Z,101627.00
2018-09-30T09:11:36.485Z,101621.00
2018-09-30T09:13:39.560Z,101625.00
2018-09-30T09:15:42.718Z,101618.00
2018-09-30T09:17:45.772Z,101616.00
2018-09-30T09:19:49.146Z,101613.00
2018-09-30T09:21:56.562Z,101608.00
2018-09-30T09:23:59.900Z,101611.00
2018-09-30T09:26:02.983Z,101615.00
2018-09-30T09:28:06.066Z,101610.00
2018-09-30T09:30:09.326Z,101604.00
2018-09-30T09:32:12.397Z,101601.00
2018-09-30T09:34:15.417Z,101599.00
2018-09-30T09:36:18.412Z,101595.00
2018-09-30T09:38:23.380Z,101598.00
2018-09-30T09:40:26.418Z,101592.00
2018-09-30T09:42:29.397Z,101588.00
2018-09-30T09:44:32.393Z,101586.00
2018-09-30T09:46:35.347Z,101587.00
2018-09-30T09:48:38.401Z,101587.00
2018-09-30T09:50:41.415Z,101581.00
2018-09-30T09:52:44.436Z,101582.00
2018-09-30T09:54:47.643Z,101579.00
2018-09-30T09:56:52.202Z,101577.00
2018-09-30T09:58:55.190Z,101570.00
2018-09-30T10:01:02.796Z,101569.00
2018-09-30T10:03:05.779Z,101567.00
2018-09-30T10:05:08.813Z,101565.00
2018-09-30T10:07:11.823Z,101567.00
2018-09-30T10:09:14.890Z,101551.00
2018-09-30T10:11:17.838Z,101553.00
2018-09-30T10:13:22.809Z,101549.00
2018-09-30T10:15:25.795Z,101537.00
2018-09-30T10:17:29.066Z,101530.00
2018-09-30T10:19:32.422Z,101527.00
2018-09-30T10:21:35.389Z,101526.00
2018-09-30T10:23:38.757Z,101522.00
2018-09-30T10:25:41.889Z,101513.00
2018-09-30T10:27:44.919Z,101519.00
2018-09-30T10:29:47.949Z,101517.00
2018-09-30T10:31:52.309Z,101512.00
2018-09-30T10:33:55.323Z,101510.00
2018-09-30T10:35:58.361Z,101511.00
2018-09-30T10:38:01.402Z,101512.00
2018-09-30T10:40:04.439Z,101499.00
2018-09-30T10:42:07.440Z,101495.00
2018-09-30T10:44:10.460Z,101489.00
2018-09-30T10:50:45.856Z,101481.00
2018-09-30T10:52:48.860Z,101475.00
2018-09-30T10:54:53.235Z,101468.00
2018-09-30T10:56:56.421Z,101459.00
2018-09-30T10:58:59.362Z,101463.00
2018-09-30T11:01:02.419Z,101457.00
2018-09-30T11:03:05.469Z,101447.00
2018-09-30T11:05:08.518Z,101449.00
2018-09-30T11:07:11.534Z,101438.00
2018-09-30T11:09:14.631Z,101439.00
2018-09-30T11:11:17.617Z,101440.00
2018-09-30T11:13:22.210Z,101432.00
2018-09-30T11:15:25.264Z,101427.00
2018-09-30T11:17:28.305Z,101424.00
2018-09-30T11:19:31.360Z,101428.00
2018-09-30T11:21:34.427Z,101416.00
2018-09-30T11:23:37.780Z,101407.00
2018-09-30T11:25:40.868Z,101401.00
2018-09-30T11:27:43.931Z,101399.00
2018-09-30T11:29:47.247Z,101401.00
2018-09-30T11:31:50.275Z,101386.00
2018-09-30T11:33:55.037Z,101379.00
2018-09-30T11:35:58.090Z,101375.00
2018-09-30T11:38:01.101Z,101369.00
2018-09-30T11:40:05.035Z,101370.00
2018-09-30T11:42:08.072Z,101381.00
2018-09-30T11:44:11.425Z,101370.00
2018-09-30T11:46:14.429Z,101365.00
2018-09-30T11:48:17.482Z,101369.00
2018-09-30T11:50:22.044Z,101365.00
2018-09-30T11:52:25.114Z,101362.00
2018-09-30T11:54:28.241Z,101356.00
2018-09-30T11:56:31.250Z,101348.00
2018-09-30T11:58:34.296Z,101344.00
2018-09-30T12:00:37.490Z,101344.00
2018-09-30T12:02:40.477Z,101342.00
2018-09-30T12:04:43.451Z,101347.00
2018-09-30T12:06:46.840Z,101329.00
2018-09-30T12:08:49.839Z,101336.00
2018-09-30T12:10:54.325Z,101325.00
2018-09-30T12:12:57.378Z,101322.00
2018-09-30T12:15:00.375Z,101319.00
2018-09-30T12:17:03.402Z,101317.00
2018-09-30T12:19:06.411Z,101316.00
2018-09-30T12:21:09.418Z,101302.00
2018-09-30T12:23:12.418Z,101304.00
2018-09-30T12:25:15.393Z,101291.00
2018-09-30T12:27:18.384Z,101279.00
2018-09-30T12:29:22.599Z,101275.00
2018-09-30T12:31:25.580Z,101268.00
2018-09-30T12:33:28.646Z,101257.00
2018-09-30T12:35:31.679Z,101257.00
2018-09-30T12:37:34.694Z,101252.00
2018-09-30T12:39:37.638Z,101246.00
2018-09-30T12:41:40.695Z,101253.00
2018-09-30T12:43:43.777Z,101247.00
2018-09-30T12:45:46.786Z,101250.00
2018-09-30T12:47:50.110Z,101249.00
2018-09-30T12:49:54.396Z,101239.00
2018-09-30T12:51:57.489Z,101235.00
2018-09-30T12:54:00.466Z,101236.00
2018-09-30T12:56:03.506Z,101237.00
2018-09-30T12:58:06.570Z,101234.00
2018-09-30T13:00:10.167Z,101235.00
2018-09-30T13:02:13.150Z,101230.00
2018-09-30T13:04:16.225Z,101228.00
2018-09-30T13:06:19.278Z,101231.00
2018-09-30T13:08:22.930Z,101219.00
2018-09-30T13:10:25.956Z,101215.00
2018-09-30T13:12:28.939Z,101211.00
2018-09-30T13:14:31.939Z,101211.00
2018-09-30T13:16:34.947Z,101198.00
2018-09-30T13:18:37.906Z,101190.00
2018-09-30T13:20:40.911Z,101196.00
2018-09-30T13:22:44.495Z,101190.00
2018-09-30T13:24:47.415Z,101181.00
2018-09-30T13:26:50.419Z,101183.00
2018-09-30T13:28:55.147Z,101139.00
2018-09-30T13:30:58.063Z,101175.00
2018-09-30T13:33:01.393Z,101172.00
2018-09-30T13:35:04.456Z,101167.00
2018-09-30T13:37:07.450Z,101165.00
2018-09-30T13:39:11.204Z,101169.00
2018-09-30T13:41:14.393Z,101171.00
2018-09-30T13:43:17.213Z,101175.00
2018-09-30T13:45:20.213Z,101171.00
2018-09-30T13:47:24.445Z,101175.00
2018-09-30T13:49:27.433Z,101166.00
2018-09-30T13:51:30.889Z,101166.00
2018-09-30T13:53:33.882Z,101166.00
2018-09-30T13:55:36.875Z,101160.00
2018-09-30T13:57:39.849Z,101159.00
2018-09-30T13:59:43.203Z,101158.00
2018-09-30T14:01:46.178Z,101144.00
2018-09-30T14:03:49.159Z,101151.00
2018-09-30T14:05:53.548Z,101142.00
2018-09-30T14:07:56.506Z,101144.00
2018-09-30T14:09:59.512Z,101149.00
2018-09-30T14:12:02.519Z,101143.00
2018-09-30T14:14:05.554Z,101146.00
2018-09-30T14:16:08.897Z,101144.00
2018-09-30T14:18:11.836Z,101134.00
2018-09-30T14:20:14.810Z,101135.00
2018-09-30T14:22:17.790Z,101129.00
2018-09-30T14:24:22.618Z,101118.00
2018-09-30T14:26:25.612Z,101120.00
2018-09-30T14:28:28.552Z,101121.00
2018-09-30T14:30:31.568Z,101122.00
2018-09-30T14:32:34.566Z,101110.00
2018-09-30T14:34:37.494Z,101105.00
2018-09-30T14:36:40.922Z,101103.00
2018-09-30T14:38:43.977Z,101103.00
2018-09-30T14:40:46.981Z,101103.00
2018-09-30T14:42:50.025Z,101096.00
2018-09-30T14:44:54.798Z,101095.00
2018-09-30T14:46:57.835Z,101095.00
2018-09-30T14:49:00.854Z,101084.00
2018-09-30T14:51:03.936Z,101087.00
2018-09-30T14:53:07.300Z,101088.00
2018-09-30T14:55:10.270Z,101085.00
2018-09-30T14:57:13.258Z,101081.00
2018-09-30T14:59:16.249Z,101073.00
2018-09-30T15:01:19.350Z,101069.00
2018-09-30T15:03:23.610Z,101066.00
2018-09-30T15:05:26.981Z,101062.00
2018-09-30T15:07:29.986Z,101059.00
2018-09-30T15:09:32.993Z,101052.00
2018-09-30T15:11:36.038Z,101048.00
2018-09-30T15:13:39.010Z,101049.00
2018-09-30T15:15:42.071Z,101055.00
2018-09-30T15:17:45.440Z,101051.00
2018-09-30T15:19:48.482Z,101051.00
2018-09-30T15:21:52.232Z,101049.00
2018-09-30T15:23:55.984Z,101045.00
2018-09-30T15:25:58.982Z,101038.00
2018-09-30T15:28:01.969Z,101032.00
2018-09-30T15:30:05.517Z,101030.00
2018-09-30T15:32:09.447Z,101025.00
2018-09-30T15:34:12.452Z,101022.00
2018-09-30T15:36:15.744Z,101030.00
2018-09-30T15:38:18.748Z,101030.00
2018-09-30T15:40:23.105Z,101022.00
2018-09-30T15:42:26.119Z,101027.00
2018-09-30T15:44:29.088Z,101028.00
2018-09-30T15:46:32.113Z,101030.00
2018-09-30T15:48:35.199Z,101021.00
2018-09-30T15:50:38.214Z,101023.00
2018-09-30T15:52:41.244Z,101017.00
2018-09-30T15:54:44.351Z,101026.00
2018-09-30T15:56:47.361Z,101024.00
2018-09-30T15:58:50.363Z,101039.00
2018-09-30T16:00:53.327Z,101030.00
2018-09-30T16:02:56.350Z,101024.00
2018-09-30T16:04:59.346Z,101032.00
2018-09-30T16:07:02.553Z,101031.00
2018-09-30T16:09:07.337Z,101029.00
2018-09-30T16:11:10.333Z,101031.00
2018-09-30T16:13:13.406Z,101021.00
2018-09-30T16:15:16.380Z,101023.00
2018-09-30T16:17:19.386Z,101021.00
2018-09-30T16:19:24.213Z,101022.00
2018-09-30T16:21:27.620Z,101021.00
2018-09-30T16:23:30.539Z,101022.00
2018-09-30T16:25:33.543Z,101016.00
2018-09-30T16:27:36.576Z,101018.00
2018-09-30T16:29:39.561Z,101019.00
2018-09-30T16:31:42.631Z,101016.00
2018-09-30T16:33:45.654Z,101020.00
2018-09-30T16:35:48.627Z,101017.00
2018-09-30T16:37:53.013Z,101018.00
2018-09-30T16:39:56.203Z,101022.00
2018-09-30T16:41:59.213Z,101028.00
2018-09-30T16:44:02.382Z,101024.00
2018-09-30T16:46:05.414Z,101032.00
2018-09-30T16:48:08.411Z,101029.00
2018-09-30T16:50:11.445Z,101030.00
2018-09-30T16:52:14.554Z,101030.00
2018-09-30T16:54:17.562Z,101026.00
2018-09-30T16:56:21.783Z,101024.00
2018-09-30T16:58:24.785Z,101027.00
2018-09-30T17:00:27.791Z,101030.00
2018-09-30T17:02:30.833Z,101031.00
2018-09-30T17:04:33.835Z,101035.00
2018-09-30T17:06:36.889Z,101041.00
2018-09-30T17:08:39.891Z,101045.00
2018-09-30T17:10:42.839Z,101050.00
2018-09-30T17:12:45.862Z,101048.00
2018-09-30T17:14:48.911Z,101045.00
2018-09-30T17:16:53.212Z,101046.00
2018-09-30T17:18:56.520Z,101045.00
2018-09-30T17:20:59.517Z,101045.00
2018-09-30T17:23:02.899Z,101044.00
2018-09-30T17:25:05.909Z,101044.00
2018-09-30T17:27:08.902Z,101042.00
2018-09-30T17:29:11.933Z,101043.00
2018-09-30T17:31:16.817Z,101045.00
2018-09-30T17:33:19.791Z,101046.00
2018-09-30T17:35:24.350Z,101042.00
2018-09-30T17:37:27.693Z,101043.00
2018-09-30T17:39:30.675Z,101043.00
2018-09-30T17:41:33.673Z,101048.00
2018-09-30T17:43:37.022Z,101051.00
2018-09-30T17:45:39.980Z,101052.00
2018-09-30T17:47:42.934Z,101055.00
2018-09-30T17:49:46.581Z,101051.00
2018-09-30T17:51:49.634Z,101046.00
2018-09-30T17:53:54.081Z,101048.00
2018-09-30T17:55:57.106Z,101048.00
2018-09-30T17:58:00.144Z,101051.00
2018-09-30T18:00:03.869Z,101051.00
2018-09-30T18:02:06.871Z,101045.00
2018-09-30T18:04:09.866Z,101044.00
2018-09-30T18:06:12.838Z,101043.00
2018-09-30T18:08:15.787Z,101044.00
2018-09-30T18:10:18.806Z,101046.00
2018-09-30T18:12:23.646Z,101045.00
2018-09-30T18:14:26.824Z,101042.00
2018-09-30T18:16:29.781Z,101039.00
2018-09-30T18:18:32.765Z,101043.00
2018-09-30T18:20:35.761Z,101042.00
2018-09-30T18:22:38.717Z,101049.00
2018-09-30T18:24:41.759Z,101049.00
2018-09-30T18:26:44.755Z,101050.00
2018-09-30T18:28:47.720Z,101049.00
2018-09-30T18:30:52.035Z,101049.00
2018-09-30T18:32:55.116Z,101048.00
2018-09-30T18:34:58.074Z,101049.00
2018-09-30T18:37:01.136Z,101047.00
2018-09-30T18:39:07.607Z,101046.00
2018-09-30T18:41:10.580Z,101043.00
2018-09-30T18:43:13.674Z,101046.00
2018-09-30T18:45:16.694Z,101044.00
2018-09-30T18:47:19.649Z,101045.00
2018-09-30T18:49:24.714Z,101037.00
2018-09-30T18:51:27.758Z,101035.00
2018-09-30T18:53:30.775Z,101037.00
2018-09-30T18:55:33.788Z,101038.00
2018-09-30T18:57:36.739Z,101039.00
2018-09-30T18:59:39.682Z,101037.00
2018-09-30T19:01:42.719Z,101036.00
2018-09-30T19:03:45.762Z,101036.00
2018-09-30T19:05:48.757Z,101037.00
2018-09-30T19:07:53.238Z,101038.00
2018-09-30T19:09:56.190Z,101035.00
2018-09-30T19:11:59.309Z,101031.00
2018-09-30T19:14:02.268Z,101033.00
2018-09-30T19:16:05.292Z,101024.00
2018-09-30T19:18:08.214Z,101023.00
2018-09-30T19:20:11.328Z,101019.00
2018-09-30T19:22:14.316Z,101020.00
2018-09-30T19:24:17.302Z,101016.00
2018-09-30T19:26:20.277Z,101010.00
2018-09-30T19:28:24.514Z,101013.00
2018-09-30T19:30:27.460Z,101016.00
2018-09-30T19:32:30.445Z,101009.00
2018-09-30T19:34:33.462Z,101014.00
2018-09-30T19:36:36.752Z,101011.00
2018-09-30T19:38:39.791Z,101017.00
2018-09-30T19:40:42.946Z,101017.00
2018-09-30T19:42:45.935Z,101010.00
2018-09-30T19:44:48.909Z,101009.00
2018-09-30T19:46:53.322Z,101010.00
2018-09-30T19:48:56.663Z,101006.00
2018-09-30T19:50:59.626Z,101007.00
2018-09-30T19:53:02.571Z,101002.00
2018-09-30T19:55:05.758Z,100998.00
2018-09-30T19:57:08.838Z,101002.00
2018-09-30T19:59:11.854Z,100998.00
2018-09-30T20:01:14.806Z,101003.00
2018-09-30T20:03:17.752Z,100999.00
2018-09-30T20:05:22.116Z,101003.00
2018-09-30T20:07:25.088Z,100998.00
2018-09-30T20:09:28.074Z,100996.00
2018-09-30T20:11:31.029Z,100994.00
2018-09-30T20:13:33.980Z,100987.00
2018-09-30T20:15:37.324Z,100984.00
2018-09-30T20:17:40.302Z,100990.00
2018-09-30T20:19:43.290Z,100985.00
2018-09-30T20:21:46.513Z,100988.00
2018-09-30T20:23:49.500Z,100985.00
2018-09-30T20:25:53.847Z,100981.00
2018-09-30T20:27:57.137Z,100988.00
2018-09-30T20:30:00.113Z,100982.00
2018-09-30T20:32:03.123Z,100981.00
2018-09-30T20:34:06.242Z,100979.00
2018-09-30T20:36:09.171Z,100978.00
2018-09-30T20:38:12.170Z,100982.00
2018-09-30T20:40:15.186Z,100979.00
2018-09-30T20:42:18.133Z,100976.00
2018-09-30T20:44:22.429Z,100978.00
2018-09-30T20:46:25.718Z,100978.00
2018-09-30T20:48:28.654Z,100969.00
2018-09-30T20:50:31.639Z,100968.00
2018-09-30T20:52:34.658Z,100966.00
2018-09-30T20:54:37.623Z,100962.00
2018-09-30T20:56:40.589Z,100964.00
2018-09-30T20:58:43.635Z,100959.00
2018-09-30T21:00:46.602Z,100954.00
2018-09-30T21:02:49.712Z,100961.00
2018-09-30T21:04:54.671Z,100950.00
2018-09-30T21:06:57.621Z,100952.00
2018-09-30T21:09:00.606Z,100947.00
2018-09-30T21:11:03.666Z,100943.00
2018-09-30T21:13:06.671Z,100942.00
2018-09-30T21:15:09.678Z,100943.00
2018-09-30T21:17:12.686Z,100940.00
2018-09-30T21:19:15.671Z,100943.00
2018-09-30T21:21:18.679Z,100940.00
2018-09-30T21:23:23.857Z,100937.00
2018-09-30T21:25:26.897Z,100941.00
2018-09-30T21:27:29.899Z,100937.00
2018-09-30T21:29:32.818Z,100937.00
2018-09-30T21:31:35.878Z,100933.00
2018-09-30T21:33:38.849Z,100934.00
2018-09-30T21:35:41.867Z,100934.00
2018-09-30T21:37:44.887Z,100930.00
2018-09-30T21:39:47.822Z,100931.00
2018-09-30T21:41:52.325Z,100933.00
2018-09-30T21:43:55.311Z,100931.00
2018-09-30T21:45:58.282Z,100928.00
2018-09-30T21:48:01.274Z,100924.00
2018-09-30T21:50:04.356Z,100927.00
2018-09-30T21:52:07.317Z,100930.00
2018-09-30T21:54:10.614Z,100927.00
2018-09-30T21:56:13.590Z,100927.00
2018-09-30T21:58:16.551Z,100927.00
2018-09-30T22:01:27.537Z,100922.00
2018-09-30T22:03:30.544Z,100921.00
2018-09-30T22:05:33.583Z,100918.00
2018-09-30T22:07:36.587Z,100931.00
2018-09-30T22:09:39.549Z,100936.00
2018-09-30T22:11:42.504Z,100924.00
2018-09-30T22:13:45.840Z,100928.00
2018-09-30T22:15:48.899Z,100926.00
2018-09-30T22:17:53.099Z,100922.00
2018-09-30T22:19:56.127Z,100916.00
2018-09-30T22:21:59.160Z,100916.00
2018-09-30T22:24:02.215Z,100923.00
2018-09-30T22:26:05.200Z,100913.00
2018-09-30T22:28:08.282Z,100911.00
2018-09-30T22:30:11.451Z,100912.00
2018-09-30T22:32:14.465Z,100915.00
2018-09-30T22:34:17.464Z,100915.00
2018-09-30T22:36:20.479Z,100912.00
2018-09-30T22:38:24.289Z,100911.00
2018-09-30T22:40:27.454Z,100910.00
2018-09-30T22:42:30.360Z,100903.00
2018-09-30T22:44:33.365Z,100907.00
2018-09-30T22:46:36.370Z,100907.00
2018-09-30T22:48:39.356Z,100907.00
2018-09-30T22:50:42.532Z,100904.00
2018-09-30T22:52:45.503Z,100900.00
2018-09-30T22:54:48.494Z,100898.00
2018-09-30T22:56:53.142Z,100902.00
2018-09-30T22:58:56.091Z,100909.00
2018-09-30T23:00:59.088Z,100904.00
2018-09-30T23:03:02.122Z,100903.00
2018-09-30T23:05:06.742Z,100894.00
2018-09-30T23:07:09.765Z,100890.00
2018-09-30T23:09:12.798Z,100895.00
2018-09-30T23:11:15.755Z,100891.00
2018-09-30T23:13:19.153Z,100885.00
2018-09-30T23:15:23.775Z,100890.00
2018-09-30T23:17:26.717Z,100888.00
2018-09-30T23:19:29.654Z,100885.00
2018-09-30T23:21:32.847Z,100882.00
2018-09-30T23:23:35.814Z,100889.00
2018-09-30T23:25:38.800Z,100885.00
2018-09-30T23:27:41.934Z,100891.00
2018-09-30T23:29:44.894Z,100889.00
2018-09-30T23:31:47.847Z,100885.00